maandag 18 februari 2019 | Home | Bestenlijsten | Bestenlijsten NL | Calculator | Nieuws | Records | Uitslagen | Videos | Wedstrijden | VZA Ranglijsten | Weer |
 
 
Recent nieuws meer nieuws
15-02: Krijgt Jarocross in Kapelle record deelname?
11-02: Tim van den Broeke loopt ‘historische’ tijd op NK 10km in Schoorl
07-02: Startgeld bij volgende Jarocross in Kapelle
24-01: Jan Roose als beginnende hardloper
12-01: D’n rapsten is eerst
05-01: Records en de juiste afstand
Wedstrijdagenda meer wedstrijden
za 23-02: Halve Marathon Axel
zo 24-02: 8e Kapellecross Kapelle-Biezelinge
zo 24-02: 3e Natuurloop Cadzand-Bad
za 02-03: Scheldesportloop Terneuzen
za 02-03: 30e Kustcross Vlissingen
za 09-03: 47e Pannekoekloop Westenschouwen
za 09-03: 32e Krokusloop Hulst
zo 10-03: 45e CPC Loop Den Haag
zo 10-03: 4e Natuurloop Retranchement
za 16-03: Corn Boys Loop Sas van Gent
za 16-03: 52e Massaloop Oostkapelle
zo 17-03: 26e Zwinstedenloop Sluis
za 23-03: 2e Dow trimloop Terneuzen
za 23-03: 8e Ronde van BRU Bruinisse
zo 24-03: 31e Parelloop Brunssum
Recente uitslagen meer uitslagen
za 16-02: 25 km Scheldeloop Terneuzen (121)
za 16-02: 14e Zwaarste 10 van Zeeland Westenschouwen
za 09-02: 25e Grevelingen cross Bruinisse
za 09-02: Erpelkappersloop Axel
zo 03-02: 28e Midwinter Halve Marathon Cadzand-Bad (420)
za 02-02: 21e Rammekensloop Ritthem (258)
za 02-02: Berlaerloop Koewacht (81)
za 26-01: 5e Scheldesport cross Westdorpe (88)
za 26-01: Eugene Vink Memorial Westdorpe (119)
za 19-01: 1e Dow trimloop Terneuzen (106)
za 12-01: 21e Steense Rattenloop Sint Jansteen (99)
za 12-01: 47e Deltacross Westenschouwen (282)
zo 06-01: Scheidsrechtersloop Vlissingen (125)
za 05-01: 58e Wallenloop Goes (158)
za 05-01: Jeff Thuy Memorial Heikant (186)
vr 04-01: Ondoloop Sint Laurens (66)
 
Zoek tenminste met 3 tekens van wedstrijd, datum, plaats of atleet
Kreekloop
Terneuzen, woensdag 27 augustus 2008 - Organisatie: Scheldesport

9.35 km

  Naam Woonplaats GbJr Cat in Cat Tijd km/hr min/km
1 Erik Goossen Terneuzen 1971 H35+   1 0:32:40 17,2 03:30
2 Edwin de la Ruelle Koewacht 1967 H40+ 1 0:32:53 17,1 03:31
3 Patrick Vervaet St. Jansteen 1972 Hsen 1 0:35:49 15,7 03:50
4 Tonny Lauret Zaamslag 1960 H45+ 1 0:35:58 15,6 03:51
5 Maarten van Goethem Hulst 1976 Hsen 2 0:36:29 15,4 03:54
6 Tom de Koster Hulst 1978 Hsen 3 0:37:09 15,1 03:58
7 Frank Boerebach Hoek 1960 H45+ 2 0:37:11 15,1 03:59
8 Frank Verschorre Breskens 1955 H50+ 1 0:37:32 14,9 04:01
9 Aschwin van den Abeele Zuiddorpe 1971 Hsen 4 0:37:56 14,8 04:03
10 Sander Verminck Eeklo 1989 Hsen 5 0:38:11 14,7 04:05
11 Pascal Kool Terneuzen 1969 H35+ 2 0:38:17 14,7 04:06
12 Michael den Hamer Terneuzen 1976 Hsen 6 0:38:39 14,5 04:08
13 Herman Kuyer Terneuzen 1960 H45+ 3 0:39:17 14,3 04:12
14 Dimitri de Kesel Sas van Gent 1972 H35+ 3 0:39:19 14,3 04:12
15 Bas Jasperse Terneuzen 1971 H35+ 4 0:39:34 14,2 04:14
16 Rinus Reingoudt Terneuzen 1959 H45+ 4 0:40:10 14,0 04:18
17 Christiaan Hiensch Terneuzen 1963 H45+ 5 0:41:06 13,6 04:24
18 Jacques zaman Terneuzen 1961 H45+ 6 0:41:42 13,5 04:28
19 Frans Verwilligen Hulst 1955 H50+ 2 0:41:47 13,4 04:28
20 Theo Roels kloosterzande 1958 H50+ 3 0:42:37 13,2 04:34
21 Hanno de Hoon Terneuzen 1957 H50+ 4 0:42:41 13,1 04:34
22 Berry Knibbeler Westdorpe 1961 H45+ 7 0:42:47 13,1 04:35
23 Bennie Bouterse Terneuzen 1966 H40+ 2 0:42:57 13,1 04:36
24 Mario van Dijk Terneuzen 1964 H40+ 3 0:44:12 12,7 04:44
25 Leo Kaijser Terneuzen 1960 H45+ 8 0:44:15 12,7 04:44
26 Cees Cosijn terneuzen 1956 H50+ 5 0:44:39 12,6 04:46
27 Tonny van Mulken Breskens 1953 H55+ 1 0:44:41 12,6 04:47
28 Sonja van Dijk Terneuzen 1973 D35+ 1 0:44:55 12,5 04:48
29 Niek de Jong Terneuzen 1959 H45+ 9 0:45:08 12,4 04:50
30 Willy van Puijvelde Schoondijke 1942 H65+ 1 0:45:53 12,2 04:54
31 Hannah Risseeuw Schoondijke 1984 Dsen 1 0:47:35 11,8 05:05
32 Veronique Vasseur Oostburg 1983 Dsen 2 0:47:36 11,8 05:05
33 George de Bakker Terneuzen 1951 H55+ 2 0:48:02 11,7 05:08
34 Marion Goossen Terneuzen 1972 D35+ 2 0:49:15 11,4 05:16
35 Annemarie Agosti Axel 1970 D35+ 3 0:49:27 11,3 05:17
36 Marc van Hijfte Gentbrugge 1959 H45+ 10 0:49:31 11,3 05:18
37 Stefan van Damme Terneuzen 1984 Hsen 7 0:51:34 10,9 05:31
38 Roland de Bock Westdorpe 1955 H50+ 6 0:51:53 10,8 05:33
39 Jurgen Lippens Oostmoer 1971 H35+ 5 0:55:57 10,0 05:59
40 Patrick de Sutter Stekene   H45+ - -    
                 
                 

  Naam Woonplaats GbJr Cat In Cat Tijd km/hr min/km
1 Rafael hoogenberg Axel 1992 Hsen 1 0:18:01 16,3 03:41
2 Nitin klapwijk Axel 1978 Hsen 2 0:18:32 15,9 03:47
3 Albert Platteeuw Terneuzen 1965 H40+ 1 0:19:31 15,1 03:59
4 Petra Rasenberg Terneuzen 1965 D40+ 1 0:20:16 14,5 04:08
5 Jaap van der VeeM Terneuzen 1967 H40+ 2 0:20:35 14,3 04:12
6 M den Dekker Breskens 1961 H45+ 1 0:21:26 13,7 04:22
7 Koen Kaustaal Hulst 1970 H35+ 1 0:21:28 13,7 04:23
8 Glenn Hoffman Axel 1958 Hsen 3 0:21:33 13,6 04:24
9 Esther Platteeuw Terneuzen 1992 Dsen 1 0:21:37 13,6 04:25
10 Joran Terrehorst Evergem 1981 H45+ 2 0:21:40 13,6 04:25
11 Andre Maes Terneuzen 1949 H55+ 1 0:21:44 13,5 04:26
12 William Verminck Eeklo 1961 H45+ 3 0:22:26 13,1 04:35
13 Noel Verbrugge Axel 1953 H50+ 1 0:22:30 13,1 04:35
14 Irenee Goethals Oostakker 1947 H60+ 1 0:23:44 12,4 04:51
15 Peter de Waal Westdorpe 1946 H60+ 2 0:23:56 12,3 04:53
16 Carla Zegers Koewacht 1968 D40+ 2 0:24:35 12,0 05:01
17 Sonja Huigh Oostburg 1960 D45+ 1 0:24:54 11,8 05:05
18 Otto de Vriendt Terneuzen 1978 Hsen 4 0:26:01 11,3 05:19
19 Brian Dickie Terneuzen 1954 H50+ 2 0:26:03 11,3 05:19
20 Gre Hendriks Terneuzen 1952 D55+ 1 0:26:10 11,2 05:20
21 Marga van den Broeke Breskens 1960 D45+ 2 0:26:15 11,2 05:22
22 Nella Kardol Eeklo 1962 D45+ 3 0:27:31 10,7 05:37
23 Marjan Suy Terneuzen 1965 D40+ 3 0:30:13 9,7 06:10
24 Leonar Ruiter Terneuzen 1962 H45+ 4 0:30:15 9,7 06:10
25 Marjolein Franken Terneuzen 1973 D35+ 1 0:30:17 9,7 06:11
26 Marijke Soulimans Hoofdplaat 1958 D50+ 1 0:30:19 9,7 06:11
27 Carlos Verbuyt IJzendijke 1943 H65+ 1 0:30:52 9,5 06:18
28 Thomas Verminck Eeklo 1992 Hsen 5 0:34:18 8,6 07:00
29 Aureel Lippens Waarschoot   H55+ - - - -

2.64 km
  Naam Woonplaats GbJr Cat In Cat Tijd km/hr min/km
1 Matti Buysse Assenede 1983 Hsen 1 0:08:48 18,0 03:20
2 Shirley Kerkhove Zuiddorpe 1993 Dsen 1 0:10:45 14,7 04:04
3 Thomas Cornelissen Terneuzen 1996 Hsen 2 0:11:11 14,2 04:14
4 Stijn de Ruiter Terneuzen 1995 Hsen 3 0:12:45 12,4 04:50
5 Soren Gommers Phillippine 1988 Hsen 4 0:13:05 12,1 04:57
6 Eric Buijsse Asenede 1951 H55+ 1 0:14:06 11,2 05:20
7 Ingeborg Cornelissen Terneuzen 1968 D40+ 1 0:14:39 10,8 05:33
8 Astrid Rasenberg Terneuzen 1995 Dsen 2 0:16:34 9,6 06:16
9 Jesper Cornelissen Terneuzen 1998 Hsen 5 0:16:36 9,5 06:17
10 Zoe Capello Terneuzen 2000 Hsen 7 0:17:57 8,8 06:48
Vorige uitslagen
DatumWedstrijdPlaatsVereniging Hits
29-08-2018 KreekloopTerneuzenScheldesport0
30-08-2017 KreekloopTerneuzenScheldesport0
31-08-2016 KreekloopTerneuzenScheldesport382
26-08-2015 KreekloopTerneuzenScheldesport489
27-08-2014 KreekloopTerneuzenScheldesport820
26-08-2009 KreekloopTerneuzenScheldesport1535
29-08-2007 KreekloopTerneuzenScheldesport1141

 
Laatste reacties:
Jan Roose: Krijgt Jarocross In Kapelle Re..
Jos den Hollander: Tim Van Den Broeke Loopt ‘hist..
Jan Roose: Tim Van Den Broeke Loopt ‘hist..
Jos den Hollander: Tim Van Den Broeke Loopt ‘hist..
Recente Zeeuwse prestaties meer prestaties
10-02: 42e Groet uit Schoorl Run (6)
10-02: Two Rivers Marathon Zaltbommel (12)
03-02: Midwinter Marathon Apeldoorn (5)
27-01: Marathon Murcia (8)
13-01: 47e Halve van Egmond (7)
31-12: Oliebollenloop Weert (1)
23-12: Kerstloop Barendrecht (8)
Recente video(s)
28e Halve van Cadzand
Atletiek Zeeland © 2019